createdAt,value
2023-01-09T00:01:29.360Z,31.80
2023-01-09T00:03:57.258Z,32.40
2023-01-09T00:06:25.132Z,32.30
2023-01-09T00:08:52.904Z,31.00
2023-01-09T00:11:21.018Z,32.70
2023-01-09T00:13:50.070Z,33.40
2023-01-09T00:16:18.224Z,33.90
2023-01-09T00:18:46.118Z,31.70
2023-01-09T00:21:14.503Z,32.20
2023-01-09T00:23:42.964Z,35.30
2023-01-09T00:26:17.800Z,31.90
2023-01-09T00:28:47.941Z,33.40
2023-01-09T00:31:16.757Z,31.10
2023-01-09T00:33:48.916Z,33.40
2023-01-09T00:36:17.084Z,32.80
2023-01-09T00:38:44.998Z,32.30
2023-01-09T00:41:19.679Z,33.40
2023-01-09T00:43:56.367Z,33.80
2023-01-09T00:46:30.616Z,34.60
2023-01-09T00:48:59.581Z,32.20
2023-01-09T00:51:28.000Z,33.50
2023-01-09T00:53:56.244Z,33.10
2023-01-09T00:56:25.820Z,33.20
2023-01-09T00:58:54.403Z,32.60
2023-01-09T01:01:22.398Z,31.90
2023-01-09T01:03:50.459Z,32.90
2023-01-09T01:06:36.957Z,32.50
2023-01-09T01:09:04.934Z,31.70
2023-01-09T01:11:33.465Z,31.80
2023-01-09T01:14:01.515Z,32.90
2023-01-09T01:16:29.512Z,31.70
2023-01-09T01:18:57.443Z,31.30
2023-01-09T01:21:25.230Z,32.90
2023-01-09T01:23:53.083Z,30.80
2023-01-09T01:26:21.306Z,32.30
2023-01-09T01:28:49.135Z,34.30
2023-01-09T01:31:18.860Z,34.20
2023-01-09T01:33:46.953Z,31.70
2023-01-09T01:36:17.446Z,31.30
2023-01-09T01:38:46.865Z,33.00
2023-01-09T01:41:29.529Z,32.40
2023-01-09T01:44:06.031Z,32.80
2023-01-09T01:46:34.663Z,30.40
2023-01-09T01:49:15.194Z,30.60
2023-01-09T01:51:53.715Z,31.10
2023-01-09T01:54:26.375Z,30.70
2023-01-09T01:56:58.555Z,31.40
2023-01-09T01:59:37.451Z,31.50
2023-01-09T02:02:05.585Z,31.50
2023-01-09T02:04:36.857Z,31.60
2023-01-09T02:07:08.636Z,30.90
2023-01-09T02:09:38.889Z,31.90
2023-01-09T02:12:25.129Z,33.30
2023-01-09T02:15:07.070Z,30.80
2023-01-09T02:17:47.893Z,32.70
2023-01-09T02:20:15.690Z,32.60
2023-01-09T02:23:00.790Z,32.70
2023-01-09T02:25:46.666Z,31.50
2023-01-09T02:28:36.135Z,32.50
2023-01-09T02:31:15.407Z,32.80
2023-01-09T02:34:09.307Z,30.80
2023-01-09T02:36:55.969Z,31.30
2023-01-09T02:39:42.792Z,31.30
2023-01-09T02:42:23.829Z,32.40
2023-01-09T02:44:51.807Z,31.90
2023-01-09T02:47:20.578Z,34.90
2023-01-09T02:50:05.049Z,34.20
2023-01-09T02:52:51.691Z,31.80
2023-01-09T02:55:34.515Z,33.80
2023-01-09T02:58:04.769Z,33.30
2023-01-09T03:00:41.910Z,33.90
2023-01-09T03:03:28.446Z,37.00
2023-01-09T03:06:04.616Z,29.70
2023-01-09T03:08:40.543Z,30.10
2023-01-09T03:11:09.076Z,30.50
2023-01-09T03:13:45.071Z,30.50
2023-01-09T03:16:19.606Z,30.00
2023-01-09T03:18:50.403Z,29.50
2023-01-09T03:21:20.187Z,29.10
2023-01-09T03:23:57.355Z,28.50
2023-01-09T03:26:26.397Z,29.70
2023-01-09T03:28:54.768Z,29.60
2023-01-09T03:31:23.045Z,29.40
2023-01-09T03:33:51.057Z,30.50
2023-01-09T03:36:20.530Z,28.90
2023-01-09T03:38:49.101Z,28.90
2023-01-09T03:41:17.600Z,28.50
2023-01-09T03:43:46.141Z,28.30
2023-01-09T03:46:21.034Z,27.80
2023-01-09T03:49:06.192Z,29.10
2023-01-09T03:51:33.969Z,28.50
2023-01-09T03:54:02.025Z,28.00
2023-01-09T03:56:29.784Z,29.10
2023-01-09T03:58:57.681Z,27.90
2023-01-09T04:05:33.384Z,28.60
2023-01-09T04:08:01.908Z,28.10
2023-01-09T04:10:29.757Z,26.40
2023-01-09T04:12:57.632Z,28.00
2023-01-09T04:15:25.905Z,26.50
2023-01-09T04:17:53.849Z,29.90
2023-01-09T04:20:22.458Z,28.50
2023-01-09T04:22:50.363Z,28.10
2023-01-09T04:25:18.278Z,28.50
2023-01-09T04:27:48.671Z,27.50
2023-01-09T04:34:39.897Z,28.60
2023-01-09T04:37:07.796Z,28.90
2023-01-09T04:39:35.794Z,29.20
2023-01-09T04:42:03.921Z,29.00
2023-01-09T04:44:31.653Z,28.00
2023-01-09T04:46:59.764Z,29.00
2023-01-09T04:49:27.684Z,27.50
2023-01-09T04:51:55.949Z,27.60
2023-01-09T04:54:24.324Z,27.50
2023-01-09T04:56:52.239Z,28.00
2023-01-09T04:59:20.058Z,29.40
2023-01-09T05:01:48.648Z,27.40
2023-01-09T05:04:16.646Z,26.90
2023-01-09T05:06:44.594Z,27.80
2023-01-09T05:09:12.380Z,27.30
2023-01-09T05:11:40.151Z,27.40
2023-01-09T05:14:08.020Z,27.50
2023-01-09T05:16:36.088Z,26.50
2023-01-09T05:19:04.161Z,27.00
2023-01-09T05:21:32.429Z,26.80
2023-01-09T05:24:00.220Z,25.40
2023-01-09T05:26:27.996Z,27.70
2023-01-09T05:28:56.595Z,27.90
2023-01-09T05:31:26.464Z,27.10
2023-01-09T05:33:54.810Z,27.20
2023-01-09T05:36:22.646Z,30.20
2023-01-09T05:38:50.511Z,28.80
2023-01-09T05:41:18.411Z,25.70
2023-01-09T05:43:46.748Z,30.10
2023-01-09T05:46:14.701Z,30.60
2023-01-09T05:48:42.624Z,31.10
2023-01-09T05:51:10.998Z,26.10
2023-01-09T05:53:38.872Z,28.30
2023-01-09T05:56:07.141Z,28.30
2023-01-09T05:58:35.035Z,27.50
2023-01-09T06:01:02.866Z,29.30
2023-01-09T06:03:30.767Z,28.10
2023-01-09T06:05:58.910Z,29.20
2023-01-09T06:08:27.807Z,26.00
2023-01-09T06:10:55.629Z,29.40
2023-01-09T06:13:23.473Z,25.70
2023-01-09T06:15:51.479Z,25.50
2023-01-09T06:18:19.389Z,24.60
2023-01-09T06:20:47.252Z,26.10
2023-01-09T06:23:15.017Z,24.30
2023-01-09T06:25:42.903Z,26.00
2023-01-09T06:28:11.552Z,24.20
2023-01-09T06:30:39.431Z,23.90
2023-01-09T06:33:12.979Z,24.10
2023-01-09T06:35:40.899Z,24.50
2023-01-09T06:38:08.766Z,25.40
2023-01-09T06:40:36.569Z,24.50
2023-01-09T06:43:04.445Z,22.70
2023-01-09T06:45:32.278Z,23.90
2023-01-09T06:48:00.046Z,24.20
2023-01-09T06:50:28.505Z,24.50
2023-01-09T06:52:56.283Z,24.40
2023-01-09T06:55:24.255Z,24.10
2023-01-09T06:57:53.157Z,25.40
2023-01-09T07:00:21.454Z,23.40
2023-01-09T07:02:49.432Z,23.80
2023-01-09T07:05:18.505Z,22.20
2023-01-09T07:07:46.359Z,22.50
2023-01-09T07:10:15.209Z,22.60
2023-01-09T07:12:43.180Z,23.30
2023-01-09T07:15:11.360Z,22.70
2023-01-09T07:17:39.246Z,22.30
2023-01-09T07:20:08.088Z,22.50
2023-01-09T07:22:35.942Z,22.40
2023-01-09T07:25:04.057Z,22.30
2023-01-09T07:27:31.978Z,21.20
2023-01-09T07:29:59.732Z,22.10
2023-01-09T07:32:27.612Z,21.50
2023-01-09T07:34:55.363Z,20.90
2023-01-09T07:37:23.602Z,21.70
2023-01-09T07:39:51.616Z,20.60
2023-01-09T07:42:19.632Z,21.30
2023-01-09T07:44:47.448Z,21.70
2023-01-09T07:47:15.244Z,22.30
2023-01-09T07:49:43.122Z,22.70
2023-01-09T07:52:11.057Z,22.20
2023-01-09T07:54:38.893Z,20.20
2023-01-09T07:57:06.744Z,22.40
2023-01-09T07:59:34.671Z,21.70
2023-01-09T08:02:05.556Z,22.20
2023-01-09T08:04:33.688Z,21.80
2023-01-09T08:07:03.272Z,21.00
2023-01-09T08:09:31.163Z,20.50
2023-01-09T08:11:59.117Z,21.30
2023-01-09T08:14:27.148Z,20.00
2023-01-09T08:16:54.927Z,21.00
2023-01-09T08:19:22.818Z,22.10
2023-01-09T08:21:51.245Z,20.80
2023-01-09T08:24:19.111Z,22.80
2023-01-09T08:26:46.982Z,23.40
2023-01-09T08:29:14.988Z,20.90
2023-01-09T08:31:42.817Z,21.60
2023-01-09T08:34:10.754Z,21.50
2023-01-09T08:36:38.655Z,21.70
2023-01-09T08:39:06.701Z,21.10
2023-01-09T08:41:53.291Z,20.70
2023-01-09T08:44:39.452Z,21.10
2023-01-09T08:47:07.671Z,20.30
2023-01-09T08:49:37.534Z,20.20
2023-01-09T08:52:06.971Z,21.10
2023-01-09T08:54:38.807Z,21.60
2023-01-09T08:57:07.311Z,22.10
2023-01-09T08:59:35.146Z,21.90
2023-01-09T09:02:03.050Z,21.40
2023-01-09T09:04:31.177Z,22.10
2023-01-09T09:06:59.059Z,22.20
2023-01-09T09:09:26.897Z,22.60
2023-01-09T09:11:54.731Z,21.30
2023-01-09T09:14:41.645Z,22.40
2023-01-09T09:17:09.598Z,21.40
2023-01-09T09:19:39.466Z,21.70
2023-01-09T09:22:07.459Z,23.10
2023-01-09T09:24:35.256Z,21.00
2023-01-09T09:27:04.669Z,23.10
2023-01-09T09:29:32.462Z,21.80
2023-01-09T09:32:01.338Z,24.10
2023-01-09T09:34:29.557Z,21.30
2023-01-09T09:36:57.604Z,21.70
2023-01-09T09:39:25.473Z,21.70
2023-01-09T09:42:39.891Z,25.70
2023-01-09T09:45:10.552Z,22.70
2023-01-09T09:48:00.251Z,21.40
2023-01-09T09:50:40.675Z,22.90
2023-01-09T09:53:21.576Z,22.40
2023-01-09T09:55:52.068Z,21.90
2023-01-09T09:58:37.827Z,22.50
2023-01-09T10:01:08.365Z,22.00
2023-01-09T10:03:59.388Z,22.20
2023-01-09T10:06:59.340Z,22.90
2023-01-09T10:09:54.451Z,22.90
2023-01-09T10:12:33.823Z,22.20
2023-01-09T10:15:14.170Z,23.50
2023-01-09T10:17:48.052Z,22.80
2023-01-09T10:20:25.290Z,22.20
2023-01-09T10:23:14.831Z,22.70
2023-01-09T10:25:57.384Z,22.10
2023-01-09T10:28:46.791Z,23.50
2023-01-09T10:31:31.858Z,23.30
2023-01-09T10:34:27.544Z,24.10
2023-01-09T10:37:20.362Z,24.20
2023-01-09T10:40:00.281Z,23.80
2023-01-09T10:42:38.483Z,25.00
2023-01-09T10:45:12.594Z,25.50
2023-01-09T10:47:42.815Z,23.90
2023-01-09T10:50:19.837Z,25.90
2023-01-09T10:52:51.470Z,24.40
2023-01-09T10:55:44.561Z,25.50
2023-01-09T10:58:23.158Z,24.50
2023-01-09T11:04:39.516Z,25.50
2023-01-09T11:07:17.563Z,25.30
2023-01-09T11:10:01.675Z,26.40
2023-01-09T11:12:32.213Z,25.60
2023-01-09T11:15:21.269Z,26.70
2023-01-09T11:17:51.902Z,25.30
2023-01-09T11:20:22.561Z,25.80
2023-01-09T11:22:55.825Z,27.70
2023-01-09T11:25:26.411Z,26.30
2023-01-09T11:28:03.258Z,27.10
2023-01-09T11:30:36.208Z,26.40
2023-01-09T11:33:16.006Z,28.60
2023-01-09T11:36:01.660Z,29.50
2023-01-09T11:38:32.137Z,28.40
2023-01-09T11:41:03.932Z,27.60
2023-01-09T11:43:38.182Z,29.20
2023-01-09T11:46:13.406Z,26.30
2023-01-09T11:48:58.937Z,28.40
2023-01-09T11:51:29.544Z,28.10
2023-01-09T11:54:01.079Z,26.70
2023-01-09T11:56:29.941Z,26.50
2023-01-09T11:59:00.068Z,26.90
2023-01-09T12:01:49.524Z,26.40
2023-01-09T12:04:24.947Z,26.50
2023-01-09T12:07:22.663Z,27.20
2023-01-09T12:10:02.452Z,27.10
2023-01-09T12:13:06.947Z,27.20
2023-01-09T12:15:48.851Z,27.10
2023-01-09T12:18:32.515Z,28.00
2023-01-09T12:21:32.690Z,26.30
2023-01-09T12:24:26.946Z,26.50
2023-01-09T12:27:00.755Z,26.30
2023-01-09T12:29:55.923Z,25.60
2023-01-09T12:32:42.223Z,25.00
2023-01-09T12:35:28.843Z,26.80
2023-01-09T12:38:08.304Z,26.80
2023-01-09T12:40:44.948Z,27.30
2023-01-09T12:43:43.337Z,26.10
2023-01-09T12:46:23.150Z,25.50
2023-01-09T12:49:35.017Z,27.80
2023-01-09T12:52:09.069Z,26.00
2023-01-09T12:54:53.642Z,26.40
2023-01-09T12:57:32.880Z,27.10
2023-01-09T13:00:06.075Z,25.50
2023-01-09T13:02:57.540Z,25.50
2023-01-09T13:05:36.136Z,27.20
2023-01-09T13:08:12.437Z,27.50
2023-01-09T13:10:45.450Z,25.50
2023-01-09T13:13:17.283Z,25.80
2023-01-09T13:15:49.937Z,27.00
2023-01-09T13:18:34.166Z,27.60
2023-01-09T13:21:02.508Z,27.90
2023-01-09T13:23:59.704Z,27.30
2023-01-09T13:26:32.968Z,28.10
2023-01-09T13:29:12.879Z,28.20
2023-01-09T13:32:15.422Z,27.10
2023-01-09T13:34:47.546Z,26.60
2023-01-09T13:40:04.676Z,26.60
2023-01-09T13:42:35.967Z,26.80
2023-01-09T13:45:20.598Z,26.90
2023-01-09T13:48:08.460Z,27.10
2023-01-09T13:50:39.616Z,26.00
2023-01-09T13:53:19.481Z,27.50
2023-01-09T13:55:59.619Z,27.20
2023-01-09T13:58:29.474Z,26.70
2023-01-09T14:01:03.298Z,27.30
2023-01-09T14:03:37.142Z,28.90
2023-01-09T14:06:17.397Z,27.60
2023-01-09T14:08:47.412Z,26.50
2023-01-09T14:11:20.895Z,27.40
2023-01-09T14:14:08.035Z,28.70
2023-01-09T14:16:37.072Z,28.40
2023-01-09T14:19:17.358Z,27.90
2023-01-09T14:21:53.610Z,27.60
2023-01-09T14:24:27.028Z,26.90
2023-01-09T14:26:58.098Z,27.20
2023-01-09T14:29:31.876Z,26.70
2023-01-09T14:32:21.483Z,27.10
2023-01-09T14:35:11.743Z,26.50
2023-01-09T14:37:41.156Z,29.20
2023-01-09T14:40:23.054Z,28.70
2023-01-09T14:42:53.753Z,29.20
2023-01-09T14:45:25.206Z,30.40
2023-01-09T14:48:11.454Z,33.70
2023-01-09T14:50:46.608Z,30.00
2023-01-09T14:53:22.772Z,31.60
2023-01-09T14:56:06.069Z,29.30
2023-01-09T14:58:36.840Z,31.80
2023-01-09T15:01:06.139Z,30.30
2023-01-09T15:03:36.922Z,34.80
2023-01-09T15:06:06.163Z,36.90
2023-01-09T15:08:34.068Z,31.70
2023-01-09T15:11:31.140Z,26.80
2023-01-09T15:14:05.119Z,42.40
2023-01-09T15:16:33.460Z,32.80
2023-01-09T15:19:06.312Z,40.90
2023-01-09T15:21:34.087Z,33.70
2023-01-09T15:24:12.103Z,44.40
2023-01-09T15:26:40.290Z,52.10
2023-01-09T15:29:17.679Z,29.30
2023-01-09T15:31:48.676Z,28.50
2023-01-09T15:34:21.329Z,29.40
2023-01-09T15:36:52.437Z,27.90
2023-01-09T15:39:25.914Z,28.20
2023-01-09T15:42:14.575Z,30.70
2023-01-09T15:44:45.470Z,28.40
2023-01-09T15:47:18.598Z,25.20
2023-01-09T15:49:47.198Z,25.30
2023-01-09T15:52:16.963Z,26.40
2023-01-09T15:54:46.597Z,25.50
2023-01-09T15:57:26.944Z,25.70
2023-01-09T15:59:56.779Z,24.50
2023-01-09T16:02:44.406Z,24.80
2023-01-09T16:05:17.270Z,25.50
2023-01-09T16:07:47.503Z,28.00
2023-01-09T16:10:24.628Z,26.90
2023-01-09T16:12:53.213Z,26.20
2023-01-09T16:15:22.081Z,27.30
2023-01-09T16:18:18.046Z,27.60
2023-01-09T16:20:46.475Z,27.70
2023-01-09T16:23:23.449Z,26.50
2023-01-09T16:26:03.522Z,26.60
2023-01-09T16:28:31.703Z,25.90
2023-01-09T16:31:01.653Z,25.80
2023-01-09T16:33:31.436Z,25.90
2023-01-09T16:35:59.694Z,26.30
2023-01-09T16:38:27.893Z,24.90
2023-01-09T16:41:18.409Z,23.70
2023-01-09T16:43:46.630Z,24.80
2023-01-09T16:46:15.668Z,27.10
2023-01-09T16:48:43.971Z,28.40
2023-01-09T16:51:20.786Z,32.50
2023-01-09T16:53:49.658Z,28.40
2023-01-09T16:56:22.081Z,23.70
2023-01-09T16:58:50.795Z,23.20
2023-01-09T17:01:18.750Z,23.40
2023-01-09T17:03:47.900Z,19.10
2023-01-09T17:06:32.206Z,20.20
2023-01-09T17:09:00.013Z,18.10
2023-01-09T17:11:32.137Z,20.60
2023-01-09T17:14:01.305Z,18.00
2023-01-09T17:16:30.286Z,17.00
2023-01-09T17:18:58.156Z,16.30
2023-01-09T17:21:29.031Z,17.30
2023-01-09T17:24:18.049Z,18.10
2023-01-09T17:27:09.515Z,20.20
2023-01-09T17:29:37.595Z,17.80
2023-01-09T17:32:05.713Z,17.20
2023-01-09T17:34:34.372Z,17.90
2023-01-09T17:37:04.376Z,17.80
2023-01-09T17:39:34.032Z,18.30
2023-01-09T17:42:02.421Z,18.70
2023-01-09T17:44:30.465Z,21.00
2023-01-09T17:46:58.732Z,21.20
2023-01-09T17:49:28.097Z,18.90
2023-01-09T17:51:57.840Z,19.10
2023-01-09T17:54:26.349Z,18.70
2023-01-09T17:56:54.540Z,26.40
2023-01-09T17:59:23.397Z,37.80
2023-01-09T18:01:51.501Z,27.70
2023-01-09T18:04:22.671Z,23.90
2023-01-09T18:06:50.992Z,19.00
2023-01-09T18:09:19.067Z,17.60
2023-01-09T18:11:48.370Z,17.10
2023-01-09T18:14:17.658Z,17.70
2023-01-09T18:16:45.704Z,27.50
2023-01-09T18:19:13.893Z,20.80
2023-01-09T18:21:41.958Z,17.40
2023-01-09T18:24:10.178Z,17.80
2023-01-09T18:26:38.576Z,17.80
2023-01-09T18:29:06.767Z,19.90
2023-01-09T18:31:34.846Z,19.10
2023-01-09T18:34:05.604Z,16.70
2023-01-09T18:36:33.999Z,17.40
2023-01-09T18:39:05.500Z,19.70
2023-01-09T18:41:33.812Z,17.80
2023-01-09T18:44:02.318Z,17.30
2023-01-09T18:46:32.313Z,17.90
2023-01-09T18:49:03.324Z,18.90
2023-01-09T18:51:33.788Z,19.90
2023-01-09T18:54:02.205Z,19.10
2023-01-09T18:56:30.690Z,19.50
2023-01-09T18:58:59.217Z,20.70
2023-01-09T19:04:37.439Z,19.10
2023-01-09T19:07:05.260Z,21.30
2023-01-09T19:09:33.603Z,21.40
2023-01-09T19:12:01.619Z,21.30
2023-01-09T19:14:29.598Z,19.60
2023-01-09T19:17:01.321Z,19.50
2023-01-09T19:19:30.332Z,19.00
2023-01-09T19:21:58.283Z,19.70
2023-01-09T19:24:26.415Z,17.50
2023-01-09T19:26:54.445Z,18.10
2023-01-09T19:29:22.389Z,18.40
2023-01-09T19:31:52.351Z,16.40
2023-01-09T19:34:20.794Z,18.80
2023-01-09T19:36:49.311Z,17.10
2023-01-09T19:39:17.418Z,17.80
2023-01-09T19:41:45.409Z,17.80
2023-01-09T19:44:13.949Z,17.20
2023-01-09T19:46:41.839Z,16.80
2023-01-09T19:49:09.893Z,17.30
2023-01-09T19:51:37.969Z,17.30
2023-01-09T19:56:35.712Z,18.20
2023-01-09T19:59:05.118Z,17.90
2023-01-09T20:01:36.174Z,18.60
2023-01-09T20:04:10.035Z,17.40
2023-01-09T20:06:41.438Z,18.70
2023-01-09T20:09:12.128Z,19.20
2023-01-09T20:11:41.528Z,19.00
2023-01-09T20:14:13.760Z,20.30
2023-01-09T20:16:42.832Z,18.80
2023-01-09T20:19:12.634Z,19.40
2023-01-09T20:21:41.650Z,19.60
2023-01-09T20:24:13.906Z,21.20
2023-01-09T20:26:41.920Z,20.90
2023-01-09T20:29:09.760Z,22.60
2023-01-09T20:31:37.936Z,21.60
2023-01-09T20:34:06.065Z,21.10
2023-01-09T20:36:34.874Z,21.80
2023-01-09T20:39:05.402Z,20.80
2023-01-09T20:41:34.417Z,21.50
2023-01-09T20:44:07.872Z,20.70
2023-01-09T20:46:42.371Z,22.20
2023-01-09T20:49:12.817Z,21.60
2023-01-09T20:51:43.499Z,21.50
2023-01-09T20:54:11.346Z,23.10
2023-01-09T20:56:39.229Z,21.90
2023-01-09T20:59:12.172Z,21.60
2023-01-09T21:01:40.487Z,21.40
2023-01-09T21:04:09.003Z,21.50
2023-01-09T21:06:37.065Z,21.70
2023-01-09T21:09:05.995Z,20.30
2023-01-09T21:11:34.241Z,22.00
2023-01-09T21:14:02.053Z,21.40
2023-01-09T21:16:30.571Z,21.60
2023-01-09T21:18:58.541Z,22.30
2023-01-09T21:21:31.288Z,22.70
2023-01-09T21:24:00.506Z,23.70
2023-01-09T21:26:30.478Z,21.60
2023-01-09T21:29:01.024Z,25.10
2023-01-09T21:31:34.611Z,23.90
2023-01-09T21:34:06.117Z,23.90
2023-01-09T21:36:35.672Z,24.70
2023-01-09T21:39:07.898Z,24.80
2023-01-09T21:41:54.660Z,26.50
2023-01-09T21:44:41.216Z,25.50
2023-01-09T21:47:09.001Z,25.20
2023-01-09T21:49:40.872Z,26.00
2023-01-09T21:52:10.803Z,27.70
2023-01-09T21:54:39.709Z,28.80
2023-01-09T21:57:08.024Z,28.00
2023-01-09T21:59:36.647Z,27.70
2023-01-09T22:02:04.546Z,26.80
2023-01-09T22:04:33.884Z,27.20
2023-01-09T22:07:01.703Z,27.30
2023-01-09T22:09:29.626Z,27.70
2023-01-09T22:11:57.861Z,26.90
2023-01-09T22:14:29.008Z,27.30
2023-01-09T22:16:56.971Z,26.90
2023-01-09T22:19:26.748Z,28.10
2023-01-09T22:21:55.817Z,28.30
2023-01-09T22:24:23.767Z,26.90
2023-01-09T22:26:51.789Z,28.00
2023-01-09T22:29:19.742Z,28.60
2023-01-09T22:31:47.974Z,28.90
2023-01-09T22:34:18.362Z,27.70
2023-01-09T22:36:46.808Z,26.40
2023-01-09T22:39:17.858Z,26.40
2023-01-09T22:41:50.129Z,27.40
2023-01-09T22:44:19.330Z,26.70
2023-01-09T22:46:47.156Z,28.40
2023-01-09T22:49:15.022Z,28.40
2023-01-09T22:51:42.868Z,28.50
2023-01-09T22:54:10.730Z,30.00
2023-01-09T22:56:38.464Z,29.10
2023-01-09T22:59:06.326Z,27.50
2023-01-09T23:01:34.207Z,27.30
2023-01-09T23:04:03.713Z,29.40
2023-01-09T23:06:31.708Z,29.70
2023-01-09T23:08:59.513Z,29.80
2023-01-09T23:11:49.582Z,29.80
2023-01-09T23:14:17.839Z,30.90
2023-01-09T23:16:45.869Z,29.90
2023-01-09T23:19:14.479Z,29.90
2023-01-09T23:21:44.472Z,31.20
2023-01-09T23:24:15.476Z,30.00
2023-01-09T23:26:43.936Z,30.30
2023-01-09T23:29:12.995Z,31.40
2023-01-09T23:31:41.380Z,30.90
2023-01-09T23:34:13.048Z,30.80
2023-01-09T23:36:41.194Z,33.20
2023-01-09T23:39:10.045Z,30.70
2023-01-09T23:41:56.754Z,34.20
2023-01-09T23:44:24.773Z,33.00
2023-01-09T23:46:52.737Z,33.50
2023-01-09T23:49:21.103Z,35.10
2023-01-09T23:51:49.130Z,32.50
2023-01-09T23:54:19.587Z,32.30
2023-01-09T23:56:47.459Z,32.80
2023-01-09T23:59:17.574Z,34.70
